Time;durP1;ratioP1;P1;durP2;ratioP2;P2;SDS_P1;SDS_P2;PMS_P1;PMS_P2;Temp;Humidity;BMP_temperature;BMP_pressure;BME280_temperature;BME280_humidity;BME280_pressure;Samples;Min_cycle;Max_cycle;Signal;HPM_P1;HPM_P2
2021/08/09 00:01:48;;;;;;;13.30;6.50;;;;;;;23.57;51.23;100473.50;4994152;28;20076;-68
2021/08/09 00:04:14;;;;;;;8.68;5.80;;;;;;;23.71;51.63;100529.50;4994163;28;20069;-68
2021/08/09 00:06:39;;;;;;;10.48;6.40;;;;;;;23.75;52.00;100525.91;4994150;28;20105;-68
2021/08/09 00:09:06;;;;;;;8.90;5.00;;;;;;;23.77;51.63;100522.38;4959622;28;20477;-68
2021/08/09 00:11:32;;;;;;;9.07;5.05;;;;;;;23.61;52.24;100524.38;4991563;28;20425;-67
2021/08/09 00:13:58;;;;;;;12.60;5.03;;;;;;;23.49;52.80;100539.50;4975178;28;20057;-69
2021/08/09 00:16:23;;;;;;;8.35;4.78;;;;;;;23.35;53.25;100547.63;4991741;28;20082;-68
2021/08/09 00:18:49;;;;;;;10.52;4.85;;;;;;;23.18;53.50;100550.47;4991570;28;20042;-69
2021/08/09 00:21:16;;;;;;;8.25;4.60;;;;;;;23.17;53.54;100539.97;4991634;28;20042;-69
2021/08/09 00:23:42;;;;;;;10.68;5.63;;;;;;;23.19;53.99;100532.91;4991405;28;20038;-68
2021/08/09 00:26:08;;;;;;;10.35;6.93;;;;;;;23.29;53.58;100537.16;4991216;28;20039;-68
2021/08/09 00:28:34;;;;;;;12.45;6.90;;;;;;;23.29;53.76;100538.91;4991394;28;20045;-72
2021/08/09 00:30:59;;;;;;;11.15;6.70;;;;;;;23.40;54.10;100540.50;4991558;28;20153;-69
2021/08/09 00:33:25;;;;;;;10.75;7.95;;;;;;;23.26;53.77;100508.22;4991455;28;20037;-69
2021/08/09 00:35:50;;;;;;;11.27;7.72;;;;;;;23.43;53.73;100534.31;4990521;28;20065;-68
2021/08/09 00:38:16;;;;;;;8.70;6.72;;;;;;;23.38;53.64;100537.00;4991084;28;20508;-69
2021/08/09 00:40:41;;;;;;;10.80;6.63;;;;;;;23.38;53.83;100537.00;4991076;28;20045;-68
2021/08/09 00:43:07;;;;;;;8.10;5.50;;;;;;;23.16;54.51;100540.88;4992597;28;20054;-68
2021/08/09 00:45:32;;;;;;;8.65;4.82;;;;;;;23.01;54.90;100544.53;4993088;28;20026;-68
2021/08/09 00:47:58;;;;;;;6.70;5.05;;;;;;;23.01;54.85;100545.41;4993279;28;20030;-68
2021/08/09 00:50:23;;;;;;;8.15;5.00;;;;;;;22.90;55.05;100549.94;4993002;28;20106;-68
2021/08/09 00:52:50;;;;;;;8.32;5.20;;;;;;;22.67;55.23;100509.00;4991825;28;20034;-68
2021/08/09 00:55:17;;;;;;;8.77;5.28;;;;;;;22.86;55.49;100543.84;4992806;28;20488;-69
2021/08/09 00:57:42;;;;;;;7.13;4.40;;;;;;;22.87;55.87;100544.72;4993092;28;20030;-74
2021/08/09 01:00:08;;;;;;;6.28;4.68;;;;;;;22.54;56.34;100507.41;4993005;28;20374;-68
2021/08/09 01:02:34;;;;;;;8.65;4.70;;;;;;;22.69;57.10;100544.06;4992835;28;20033;-68
2021/08/09 01:05:04;;;;;;;7.45;4.80;;;;;;;22.67;57.69;100545.84;4974889;28;20045;-68
2021/08/09 01:07:47;;;;;;;10.50;4.40;;;;;;;22.66;57.67;100528.31;4992806;28;20480;-69
2021/08/09 01:10:27;;;;;;;8.18;4.15;;;;;;;22.67;57.64;100532.69;4992770;28;20029;-68
2021/08/09 01:13:07;;;;;;;6.22;4.45;;;;;;;22.41;58.23;100504.91;4992741;28;20027;-68
2021/08/09 01:15:36;;;;;;;;;;;;;;;22.53;59.11;100542.47;4993433;28;20089;-69
2021/08/09 01:18:05;;;;;;;8.80;4.28;;;;;;;22.42;59.28;100537.38;4992681;28;19914;-69
2021/08/09 01:20:51;;;;;;;7.13;3.75;;;;;;;22.38;59.10;100541.78;4992742;28;20030;-69
2021/08/09 01:23:34;;;;;;;6.15;4.03;;;;;;;22.38;59.06;100543.53;4992736;28;20481;-68
2021/08/09 01:26:38;;;;;;;7.05;3.70;;;;;;;22.42;58.99;100537.38;4992676;28;20024;-68
2021/08/09 01:29:08;;;;;;;5.90;3.67;;;;;;;22.40;59.02;100518.94;4913729;29;20057;-68
2021/08/09 01:31:47;;;;;;;5.32;3.40;;;;;;;22.31;59.43;100532.19;4913524;29;20060;-68
2021/08/09 01:34:13;;;;;;;5.75;3.60;;;;;;;21.90;60.35;100504.53;4913613;29;20126;-68
2021/08/09 01:36:43;;;;;;;10.40;3.80;;;;;;;22.07;59.83;100547.31;4913553;29;20028;-67
2021/08/09 01:39:10;;;;;;;9.98;3.95;;;;;;;22.09;60.35;100539.41;4913829;29;20091;-68
2021/08/09 01:41:39;;;;;;;9.23;3.90;;;;;;;21.81;60.39;100508.97;4913401;29;20036;-68
2021/08/09 01:44:05;;;;;;;8.35;4.00;;;;;;;21.50;59.82;100487.34;4913448;29;20589;-68
2021/08/09 01:46:33;;;;;;;6.20;3.65;;;;;;;21.92;59.25;100536.91;4897467;29;20088;-68
2021/08/09 01:49:00;;;;;;;7.13;3.90;;;;;;;21.91;59.05;100524.69;4913425;29;20040;-68
2021/08/09 01:51:26;;;;;;;6.38;3.53;;;;;;;21.94;59.18;100527.28;4913351;29;20040;-68
2021/08/09 01:53:53;;;;;;;7.97;3.80;;;;;;;22.00;58.82;100516.72;4913384;29;20052;-68
2021/08/09 01:56:20;;;;;;;7.68;4.28;;;;;;;21.75;59.51;100490.66;4913044;29;20467;-69
2021/08/09 01:58:46;;;;;;;10.02;4.28;;;;;;;21.87;59.82;100486.16;4913013;29;20103;-69
2021/08/09 02:01:12;;;;;;;10.15;4.15;;;;;;;21.99;60.23;100512.31;4913196;29;20036;-69
2021/08/09 02:03:38;;;;;;;7.75;4.00;;;;;;;21.92;60.68;100519.41;4913275;29;20067;-68
2021/08/09 02:06:03;;;;;;;6.90;3.95;;;;;;;21.92;60.21;100521.16;4961386;28;20072;-67
2021/08/09 02:08:29;;;;;;;10.18;3.88;;;;;;;22.02;59.25;100514.06;4992201;28;20041;-69
2021/08/09 02:11:05;;;;;;;8.75;3.80;;;;;;;21.62;59.42;100487.25;4992160;28;20048;-67
2021/08/09 02:13:43;;;;;;;9.18;3.95;;;;;;;21.73;60.00;100530.97;4992188;28;20436;-69
2021/08/09 02:16:18;;;;;;;4.95;3.78;;;;;;;21.36;60.80;100489.19;4991660;28;20053;-68
2021/08/09 02:18:49;;;;;;;6.78;4.00;;;;;;;21.69;60.45;100535.38;4991908;28;20034;-70
2021/08/09 02:21:18;;;;;;;6.45;3.97;;;;;;;21.39;61.09;100525.94;4973664;28;20038;-69
2021/08/09 02:23:47;;;;;;;;;;;;;;;21.42;60.95;100536.41;4992576;28;20030;-68
2021/08/09 02:26:16;;;;;;;9.10;3.72;;;;;;;21.41;60.71;100543.44;4991914;28;19921;-67
2021/08/09 02:28:47;;;;;;;10.25;4.18;;;;;;;21.21;62.14;100542.66;4991636;28;20058;-68
2021/08/09 02:31:17;;;;;;;7.60;4.38;;;;;;;21.10;61.91;100545.38;4992022;28;20026;-69
2021/08/09 02:33:42;;;;;;;8.15;3.97;;;;;;;21.04;62.10;100545.41;4992243;28;20022;-70
2021/08/09 02:36:09;;;;;;;5.95;3.83;;;;;;;21.12;61.77;100546.22;4991827;28;20031;-68
2021/08/09 02:38:35;;;;;;;6.82;3.67;;;;;;;21.20;61.53;100547.06;4991972;28;20082;-68
2021/08/09 02:41:02;;;;;;;12.43;3.70;;;;;;;21.09;61.87;100544.47;4991753;28;20034;-68
2021/08/09 02:43:28;;;;;;;8.05;3.83;;;;;;;21.12;62.10;100540.97;4991755;28;20540;-73
2021/08/09 02:45:57;;;;;;;10.93;4.00;;;;;;;20.71;63.10;100513.13;4991929;28;20085;-68
2021/08/09 02:48:23;;;;;;;6.57;3.53;;;;;;;21.05;62.71;100536.63;4992113;28;20443;-70
2021/08/09 02:50:49;;;;;;;8.43;4.13;;;;;;;21.15;62.70;100544.44;4991919;28;20033;-68
2021/08/09 02:53:20;;;;;;;12.35;3.80;;;;;;;21.37;61.91;100543.44;4991719;28;20455;-68
2021/08/09 02:55:57;;;;;;;8.85;3.53;;;;;;;21.50;60.75;100540.72;4991685;28;20037;-68
2021/08/09 02:58:23;;;;;;;5.50;3.53;;;;;;;21.65;60.53;100550.28;4991874;28;20029;-68
2021/08/09 03:00:50;;;;;;;6.90;3.47;;;;;;;21.74;60.12;100549.34;4994420;28;20034;-67
2021/08/09 03:03:21;;;;;;;10.57;4.30;;;;;;;21.85;59.64;100545.78;4995037;28;20477;-68
2021/08/09 03:05:51;;;;;;;7.68;3.70;;;;;;;21.57;59.97;100512.72;4995275;28;20033;-68
2021/08/09 03:08:16;;;;;;;;;;;;;;;21.58;60.31;100550.34;4995655;28;20077;-68
2021/08/09 03:10:42;;;;;;;8.52;4.32;;;;;;;21.52;60.75;100545.09;4995049;28;19914;-73
2021/08/09 03:13:10;;;;;;;14.10;4.07;;;;;;;21.23;61.85;100552.28;4994044;28;20031;-68
2021/08/09 03:15:37;;;;;;;17.65;4.60;;;;;;;21.27;61.86;100550.50;4994949;28;20078;-68
2021/08/09 03:18:02;;;;;;;12.98;4.80;;;;;;;21.41;61.36;100548.69;4994765;28;20076;-68
2021/08/09 03:20:29;;;;;;;13.25;4.50;;;;;;;21.34;61.17;100554.84;4994822;28;20026;-68
2021/08/09 03:22:54;;;;;;;17.45;4.63;;;;;;;21.13;61.49;100525.22;4994677;28;20032;-68
2021/08/09 03:25:20;;;;;;;10.73;4.20;;;;;;;21.34;61.18;100562.72;4995020;28;20030;-69
2021/08/09 03:27:45;;;;;;;10.88;4.40;;;;;;;21.04;62.20;100558.53;4994756;28;20108;-68
2021/08/09 03:30:11;;;;;;;13.55;5.25;;;;;;;21.00;62.74;100552.41;4994832;28;20031;-67
2021/08/09 03:32:37;;;;;;;9.45;4.82;;;;;;;20.87;62.50;100521.84;4994547;28;20116;-68
2021/08/09 03:35:03;;;;;;;17.95;7.88;;;;;;;20.75;63.70;100556.88;4994760;28;20501;-68
2021/08/09 03:37:28;;;;;;;20.95;9.65;;;;;;;20.28;65.84;100571.84;4994443;28;20034;-68
2021/08/09 03:39:54;;;;;;;20.67;11.00;;;;;;;20.33;65.79;100565.69;4994596;28;20037;-67
2021/08/09 03:42:20;;;;;;;15.50;8.60;;;;;;;20.64;64.64;100562.16;4994804;28;20504;-71
2021/08/09 03:44:46;;;;;;;25.42;13.32;;;;;;;20.77;64.05;100561.25;4994553;28;20405;-68
2021/08/09 03:47:11;;;;;;;38.50;11.85;;;;;;;20.55;64.94;100546.41;4994259;28;20032;-68
2021/08/09 03:49:37;;;;;;;19.33;9.20;;;;;;;20.72;64.09;100563.00;4994351;28;20026;-69
2021/08/09 03:52:03;;;;;;;13.75;6.32;;;;;;;20.54;65.47;100571.78;4994166;28;20053;-68
2021/08/09 03:54:29;;;;;;;12.90;6.18;;;;;;;20.67;64.96;100573.50;4994724;28;20026;-67
2021/08/09 03:56:55;;;;;;;11.80;4.88;;;;;;;20.69;64.72;100566.47;4994332;28;20037;-68
2021/08/09 03:59:20;;;;;;;16.52;5.32;;;;;;;20.50;66.02;100578.78;4994058;28;20030;-68
2021/08/09 04:01:48;;;;;;;6.32;4.18;;;;;;;20.84;64.67;100580.47;4994331;28;20080;-69
2021/08/09 04:04:13;;;;;;;8.90;3.42;;;;;;;20.94;63.63;100570.81;4994221;28;20484;-68
2021/08/09 04:06:39;;;;;;;7.68;4.30;;;;;;;21.01;63.55;100569.91;4993880;28;20025;-68
2021/08/09 04:09:07;;;;;;;11.68;3.50;;;;;;;20.93;64.52;100584.81;4994105;28;20032;-68
2021/08/09 04:11:32;;;;;;;11.85;3.80;;;;;;;20.87;64.26;100574.34;4992867;28;20081;-68
2021/08/09 04:13:58;;;;;;;12.07;4.07;;;;;;;21.00;64.12;100576.91;4993778;28;20034;-72
2021/08/09 04:16:24;;;;;;;13.55;3.80;;;;;;;21.12;63.24;100572.47;4993955;28;20022;-68
2021/08/09 04:18:49;;;;;;;12.50;4.32;;;;;;;21.05;63.70;100587.38;4994067;28;20037;-68
2021/08/09 04:21:15;;;;;;;10.40;3.70;;;;;;;20.68;64.14;100527.16;4993491;28;20026;-68
2021/08/09 04:23:40;;;;;;;10.60;3.50;;;;;;;21.20;63.09;100573.31;4993741;28;20033;-68
2021/08/09 04:26:06;;;;;;;12.05;4.25;;;;;;;21.54;62.63;100588.84;4993879;28;20032;-68
2021/08/09 04:28:31;;;;;;;14.48;4.15;;;;;;;21.70;61.86;100588.81;4993452;28;20081;-68
2021/08/09 04:30:57;;;;;;;12.40;4.32;;;;;;;21.41;62.62;100598.59;4993544;28;20034;-68
2021/08/09 04:33:22;;;;;;;12.68;3.83;;;;;;;21.37;63.54;100601.22;4993497;28;20034;-68
2021/08/09 04:35:48;;;;;;;10.40;4.32;;;;;;;21.15;64.22;100612.72;4993391;28;20027;-68
2021/08/09 04:38:13;;;;;;;6.68;4.18;;;;;;;20.55;66.43;100599.75;4993656;28;20034;-68
2021/08/09 04:40:40;;;;;;;8.05;4.25;;;;;;;20.94;65.16;100610.19;4993370;28;20033;-70
2021/08/09 04:43:05;;;;;;;6.22;3.65;;;;;;;21.06;64.48;100607.50;4993347;28;20059;-68
2021/08/09 04:45:31;;;;;;;5.22;3.30;;;;;;;21.31;63.39;100608.25;4993382;28;20030;-68
2021/08/09 04:47:57;;;;;;;5.13;3.90;;;;;;;21.46;63.04;100609.94;4992093;28;20042;-68
2021/08/09 04:50:22;;;;;;;8.55;3.50;;;;;;;21.65;63.59;100618.59;4993112;28;20096;-68
2021/08/09 04:52:47;;;;;;;9.63;4.30;;;;;;;21.44;63.16;100600.31;4993318;28;20034;-68
2021/08/09 04:55:13;;;;;;;11.40;4.10;;;;;;;21.25;63.46;100586.41;4993334;28;20481;-68
2021/08/09 04:57:39;;;;;;;10.20;3.95;;;;;;;21.62;62.38;100618.63;4993144;28;20123;-69
2021/08/09 05:00:06;;;;;;;8.45;4.20;;;;;;;21.95;61.76;100636.78;4993049;28;20033;-68
2021/08/09 05:02:32;;;;;;;9.32;4.57;;;;;;;22.14;61.24;100630.53;4992926;28;20493;-68
2021/08/09 05:04:58;;;;;;;7.55;4.15;;;;;;;22.10;61.02;100638.44;4992831;28;20035;-67
2021/08/09 05:07:24;;;;;;;11.52;4.03;;;;;;;22.05;60.79;100614.81;4993020;28;20041;-73
2021/08/09 05:09:49;;;;;;;7.28;3.78;;;;;;;22.32;60.84;100641.75;4991713;28;20423;-68
2021/08/09 05:12:15;;;;;;;8.25;3.97;;;;;;;22.32;61.27;100638.25;4993012;28;20486;-68
2021/08/09 05:14:40;;;;;;;9.45;4.60;;;;;;;22.17;62.34;100639.25;4992705;28;20503;-67
2021/08/09 05:17:06;;;;;;;11.32;4.65;;;;;;;22.06;62.48;100647.25;4992830;28;20026;-68
2021/08/09 05:19:32;;;;;;;9.07;4.40;;;;;;;22.04;62.10;100643.75;4992431;28;20026;-68
2021/08/09 05:21:58;;;;;;;7.72;3.83;;;;;;;22.12;62.03;100647.19;4992485;28;20580;-68
2021/08/09 05:24:23;;;;;;;12.45;3.80;;;;;;;22.34;61.46;100649.63;4992746;28;20030;-68
2021/08/09 05:26:49;;;;;;;8.93;4.15;;;;;;;22.17;62.01;100648.03;4990767;28;20055;-68
2021/08/09 05:29:15;;;;;;;10.73;4.40;;;;;;;21.89;63.16;100647.34;4992686;28;20041;-68
2021/08/09 05:31:41;;;;;;;9.70;4.50;;;;;;;22.13;63.42;100655.06;4992442;28;20033;-68
2021/08/09 05:34:06;;;;;;;8.40;3.72;;;;;;;21.92;63.62;100637.69;4992353;28;20105;-67
2021/08/09 05:36:32;;;;;;;8.48;4.30;;;;;;;22.18;63.31;100649.78;4991653;28;20117;-68
2021/08/09 05:39:02;;;;;;;7.72;3.72;;;;;;;22.33;62.25;100642.63;4992619;28;20026;-68
2021/08/09 05:41:28;;;;;;;5.43;3.72;;;;;;;22.44;62.56;100627.63;4992426;28;20026;-68
2021/08/09 05:43:54;;;;;;;13.65;4.22;;;;;;;22.81;61.32;100645.69;4992385;28;20038;-69
2021/08/09 05:46:19;;;;;;;5.70;3.60;;;;;;;23.01;59.99;100644.59;4992202;28;20038;-68
2021/08/09 05:48:44;;;;;;;16.17;3.97;;;;;;;23.30;59.38;100648.66;4992115;28;20034;-68
2021/08/09 05:51:10;;;;;;;9.80;3.80;;;;;;;23.39;59.27;100645.91;4992418;28;20038;-69
2021/08/09 05:53:35;;;;;;;7.88;4.53;;;;;;;23.46;58.88;100633.53;4992551;28;20030;-68
2021/08/09 05:56:01;;;;;;;11.20;4.28;;;;;;;23.52;58.62;100628.16;4992274;28;20109;-68
2021/08/09 05:58:26;;;;;;;10.82;4.00;;;;;;;23.43;58.94;100623.91;4992192;28;20034;-69
2021/08/09 06:00:52;;;;;;;8.85;3.88;;;;;;;23.72;58.18;100628.72;4992165;28;20023;-69
2021/08/09 06:03:21;;;;;;;11.32;4.85;;;;;;;23.66;57.80;100605.09;4992186;28;20085;-68
2021/08/09 06:05:46;;;;;;;9.32;3.55;;;;;;;23.96;57.52;100638.97;4992533;28;20022;-69
2021/08/09 06:08:12;;;;;;;8.55;4.13;;;;;;;24.11;57.31;100635.22;4992403;28;20409;-68
2021/08/09 06:10:38;;;;;;;6.45;3.65;;;;;;;24.35;56.46;100637.44;4992284;28;20027;-69
2021/08/09 06:13:03;;;;;;;6.78;3.45;;;;;;;24.48;55.78;100639.84;4992396;28;20041;-71
2021/08/09 06:15:29;;;;;;;7.95;4.03;;;;;;;24.39;55.27;100610.09;4991938;28;20057;-68
2021/08/09 06:17:54;;;;;;;8.43;3.95;;;;;;;24.67;55.56;100630.75;4991867;28;20029;-68
2021/08/09 06:20:19;;;;;;;9.73;4.20;;;;;;;24.47;59.39;100630.19;4992315;28;20065;-68
2021/08/09 06:22:45;;;;;;;9.93;3.83;;;;;;;24.49;58.20;100631.06;4992286;28;20065;-69
2021/08/09 06:25:10;;;;;;;7.85;3.45;;;;;;;24.65;55.97;100613.16;4992010;28;20057;-68
2021/08/09 06:27:37;;;;;;;8.55;3.55;;;;;;;24.69;55.27;100584.03;4991844;28;20026;-68
2021/08/09 06:30:03;;;;;;;8.02;3.38;;;;;;;24.84;54.94;100595.22;4991821;28;20038;-70
2021/08/09 06:32:28;;;;;;;8.88;3.22;;;;;;;25.14;54.50;100628.03;4957666;28;20038;-68
2021/08/09 06:34:54;;;;;;;8.40;3.53;;;;;;;25.21;53.75;100631.44;5008982;28;20093;-69
2021/08/09 06:37:19;;;;;;;9.77;3.15;;;;;;;25.45;53.66;100637.13;4995967;28;20547;-69
2021/08/09 06:39:45;;;;;;;6.47;3.05;;;;;;;25.20;54.08;100633.19;4995621;28;20026;-68
2021/08/09 06:42:10;;;;;;;7.35;3.10;;;;;;;25.36;53.96;100622.31;4995447;28;20037;-68
2021/08/09 06:44:36;;;;;;;6.95;3.20;;;;;;;25.53;53.93;100619.28;4995522;28;20065;-68
2021/08/09 06:47:01;;;;;;;7.20;2.70;;;;;;;25.64;53.20;100613.75;4995339;28;20514;-68
2021/08/09 06:49:27;;;;;;;4.68;2.83;;;;;;;25.75;53.22;100621.44;4995640;28;20034;-68
2021/08/09 06:51:53;;;;;;;7.78;3.40;;;;;;;25.88;52.74;100614.94;4995517;28;20034;-69
2021/08/09 06:54:21;;;;;;;5.80;3.00;;;;;;;26.06;52.14;100616.31;4995251;28;20519;-68
2021/08/09 06:56:47;;;;;;;7.40;3.22;;;;;;;26.05;52.20;100614.53;4995410;28;20030;-72
2021/08/09 06:59:12;;;;;;;8.30;3.22;;;;;;;26.12;52.11;100618.78;4995115;28;20031;-72
2021/08/09 07:01:38;;;;;;;6.50;3.20;;;;;;;26.17;52.01;100608.09;4995159;28;20496;-68
2021/08/09 07:04:03;;;;;;;14.55;3.70;;;;;;;26.19;51.82;100600.97;4995422;28;20065;-68
2021/08/09 07:06:29;;;;;;;10.60;3.50;;;;;;;26.40;51.62;100622.50;4995488;28;20535;-69
2021/08/09 07:08:55;;;;;;;5.20;3.03;;;;;;;26.57;50.54;100625.56;4995111;28;20030;-68
2021/08/09 07:11:24;;;;;;;5.90;3.47;;;;;;;26.57;52.13;100630.88;4994943;28;20031;-68
2021/08/09 07:13:51;;;;;;;8.80;3.17;;;;;;;26.32;52.34;100625.38;4995198;28;20046;-69
2021/08/09 07:16:19;;;;;;;11.18;3.40;;;;;;;26.51;51.10;100627.53;4994774;28;20054;-69
2021/08/09 07:18:44;;;;;;;7.70;3.13;;;;;;;26.73;48.97;100609.25;4995030;28;20394;-68
2021/08/09 07:21:10;;;;;;;6.43;2.80;;;;;;;26.93;48.96;100617.53;4994943;28;20031;-68
2021/08/09 07:23:36;;;;;;;9.07;3.20;;;;;;;27.06;48.13;100623.34;4995040;28;20026;-68
2021/08/09 07:26:01;;;;;;;5.07;2.90;;;;;;;27.10;48.65;100613.53;4994511;28;20477;-68
2021/08/09 07:28:28;;;;;;;7.93;2.70;;;;;;;27.14;48.48;100615.16;4994642;28;20065;-69
2021/08/09 07:30:53;;;;;;;7.90;3.20;;;;;;;27.31;47.94;100609.34;4994754;28;20100;-68
2021/08/09 07:33:19;;;;;;;4.32;2.70;;;;;;;27.44;47.36;100616.06;4994769;28;20030;-69
2021/08/09 07:35:44;;;;;;;7.47;3.35;;;;;;;27.52;47.31;100601.69;4994768;28;20114;-69
2021/08/09 07:38:11;;;;;;;6.25;2.80;;;;;;;27.61;49.75;100609.34;4992798;28;20034;-69
2021/08/09 07:40:37;;;;;;;5.05;2.50;;;;;;;27.39;48.00;100609.13;4993329;28;20065;-68
2021/08/09 07:43:03;;;;;;;5.40;2.72;;;;;;;27.18;48.00;100606.22;4993190;28;20489;-68
2021/08/09 07:45:29;;;;;;;28.33;4.18;;;;;;;27.37;47.60;100608.31;4994036;28;20038;-68
2021/08/09 07:47:55;;;;;;;6.20;2.65;;;;;;;27.56;47.75;100609.47;4994318;28;20027;-68
2021/08/09 07:50:21;;;;;;;8.30;2.90;;;;;;;27.52;47.24;100580.47;4994469;28;20034;-68
2021/08/09 07:52:47;;;;;;;5.80;2.60;;;;;;;27.92;46.32;100614.50;4993298;28;20490;-69
2021/08/09 07:55:13;;;;;;;6.38;3.15;;;;;;;28.06;46.12;100605.25;4994193;28;20037;-68
2021/08/09 07:57:38;;;;;;;6.22;2.53;;;;;;;28.21;45.22;100611.84;4994077;28;20404;-69
2021/08/09 08:00:05;;;;;;;7.07;2.47;;;;;;;28.31;44.89;100594.66;4994013;28;20473;-68
2021/08/09 08:02:30;;;;;;;4.18;2.55;;;;;;;27.97;46.30;100579.88;4994382;28;20463;-69
2021/08/09 08:04:56;;;;;;;8.80;2.97;;;;;;;28.24;45.85;100588.72;4994554;28;20031;-71
2021/08/09 08:07:21;;;;;;;9.77;3.03;;;;;;;28.49;48.14;100601.13;4994162;28;20046;-69
2021/08/09 08:09:48;;;;;;;5.90;2.60;;;;;;;28.49;48.63;100603.78;4994209;28;20488;-69
2021/08/09 08:12:15;;;;;;;7.43;2.70;;;;;;;28.56;49.26;100597.31;4993919;28;20456;-74
2021/08/09 08:14:40;;;;;;;7.38;2.67;;;;;;;28.44;47.33;100568.56;4994166;28;20460;-68
2021/08/09 08:17:06;;;;;;;7.30;2.70;;;;;;;28.85;45.34;100584.78;4994005;28;20121;-69
2021/08/09 08:19:31;;;;;;;5.95;2.60;;;;;;;28.99;47.42;100584.25;4993945;28;20034;-69
2021/08/09 08:21:57;;;;;;;6.68;2.80;;;;;;;29.08;48.06;100568.91;4992412;28;20104;-68
2021/08/09 08:24:22;;;;;;;8.88;2.63;;;;;;;29.28;43.91;100586.72;4993625;28;20030;-68
2021/08/09 08:26:48;;;;;;;4.30;2.63;;;;;;;29.28;44.49;100573.44;4993666;28;20042;-69
2021/08/09 08:29:13;;;;;;;6.35;2.55;;;;;;;29.58;43.73;100587.31;4993573;28;20062;-68
2021/08/09 08:31:41;;;;;;;5.28;2.50;;;;;;;29.64;43.28;100586.19;4993747;28;20446;-69
2021/08/09 08:34:07;;;;;;;7.03;2.72;;;;;;;29.61;44.04;100583.66;4993521;28;20027;-68
2021/08/09 08:36:32;;;;;;;4.40;2.35;;;;;;;29.63;43.41;100569.34;4993554;28;20030;-68
2021/08/09 08:38:58;;;;;;;4.35;2.30;;;;;;;29.81;42.28;100589.03;4993476;28;20019;-69
2021/08/09 08:41:23;;;;;;;8.77;2.78;;;;;;;29.90;41.99;100578.97;4993164;28;20069;-69
2021/08/09 08:43:50;;;;;;;5.32;2.83;;;;;;;29.94;45.87;100578.75;4991968;28;20045;-69
2021/08/09 08:46:16;;;;;;;8.95;3.05;;;;;;;30.00;43.49;100578.50;4993211;28;20405;-69
2021/08/09 08:48:42;;;;;;;7.60;2.40;;;;;;;30.08;45.05;100580.81;4993120;28;20539;-68
2021/08/09 08:51:10;;;;;;;5.75;2.60;;;;;;;30.07;44.28;100578.22;4993071;28;20121;-69
2021/08/09 08:53:36;;;;;;;8.63;2.83;;;;;;;30.10;42.60;100567.47;4993170;28;20018;-69
2021/08/09 08:56:06;;;;;;;4.60;2.33;;;;;;;30.33;41.58;100582.44;4993147;28;20096;-69
2021/08/09 08:58:32;;;;;;;4.00;2.28;;;;;;;30.49;42.18;100572.00;4992422;28;20045;-69
2021/08/09 09:00:58;;;;;;;6.63;2.50;;;;;;;30.57;43.78;100567.19;4993290;28;20481;-69
2021/08/09 09:03:28;;;;;;;7.13;2.40;;;;;;;30.52;39.82;100542.56;4993153;28;20026;-69
2021/08/09 09:06:09;;;;;;;5.63;2.83;;;;;;;30.90;39.59;100566.56;4993130;28;20081;-69
2021/08/09 09:08:37;;;;;;;4.65;2.13;;;;;;;30.96;38.55;100560.09;4993008;28;20030;-70
2021/08/09 09:11:13;;;;;;;6.47;2.53;;;;;;;31.13;38.89;100568.19;4992974;28;20374;-69
2021/08/09 09:13:59;;;;;;;6.95;2.60;;;;;;;31.37;38.81;100561.75;4993077;28;20034;-69
2021/08/09 09:16:25;;;;;;;6.80;2.42;;;;;;;31.24;38.59;100535.69;4992785;28;20073;-69
2021/08/09 09:18:55;;;;;;;5.43;2.50;;;;;;;31.61;37.78;100560.50;4992891;28;20062;-69
2021/08/09 09:21:29;;;;;;;5.15;2.33;;;;;;;31.75;36.91;100567.88;4992665;28;20034;-69
2021/08/09 09:24:06;;;;;;;7.35;2.35;;;;;;;31.75;37.01;100540.31;4992916;28;20038;-69
2021/08/09 09:26:32;;;;;;;3.97;2.30;;;;;;;32.16;34.78;100560.50;4974716;28;20034;-69
2021/08/09 09:29:06;;;;;;;5.57;2.30;;;;;;;32.26;34.32;100559.97;4992914;28;20049;-69
2021/08/09 09:31:31;;;;;;;4.57;2.45;;;;;;;32.40;37.47;100553.91;4992410;28;20492;-69
2021/08/09 09:33:58;;;;;;;9.60;2.83;;;;;;;32.43;38.19;100556.38;4992656;28;20088;-69
2021/08/09 09:36:24;;;;;;;5.25;2.33;;;;;;;32.47;37.73;100564.25;4992619;28;20507;-69
2021/08/09 09:38:52;;;;;;;6.05;2.65;;;;;;;32.49;37.45;100554.31;4992444;28;20105;-69
2021/08/09 09:41:19;;;;;;;5.43;2.50;;;;;;;32.61;36.17;100559.00;4992602;28;20057;-69
2021/08/09 09:43:45;;;;;;;4.88;2.38;;;;;;;32.74;33.88;100552.09;4992376;28;20492;-70
2021/08/09 09:46:22;;;;;;;5.38;2.58;;;;;;;32.83;33.85;100548.03;4958215;28;20068;-69
2021/08/09 09:48:48;;;;;;;3.70;2.28;;;;;;;32.90;33.38;100548.59;4992404;28;20034;-69
2021/08/09 09:51:16;;;;;;;7.07;2.67;;;;;;;33.02;32.25;100541.66;4992372;28;20026;-69
2021/08/09 09:53:43;;;;;;;4.13;2.03;;;;;;;33.17;31.75;100551.53;4992092;28;20412;-69
2021/08/09 09:56:09;;;;;;;4.60;2.20;;;;;;;33.32;32.36;100555.16;4992366;28;20053;-68
2021/08/09 09:58:36;;;;;;;5.70;2.40;;;;;;;33.44;31.15;100544.69;4992180;28;20121;-69
2021/08/09 10:01:04;;;;;;;4.43;2.20;;;;;;;33.53;31.17;100541.47;4992202;28;20567;-69
2021/08/09 10:03:33;;;;;;;90.93;6.25;;;;;;;33.71;30.91;100540.41;4992527;28;20031;-69
2021/08/09 10:06:01;;;;;;;8.63;2.25;;;;;;;33.81;30.13;100530.00;4992286;28;20117;-69
2021/08/09 10:08:33;;;;;;;5.05;2.00;;;;;;;33.86;28.86;100519.06;4993285;28;20037;-69
2021/08/09 10:11:00;;;;;;;4.70;1.90;;;;;;;33.89;27.56;100526.03;4996135;28;20031;-69
2021/08/09 10:13:27;;;;;;;8.75;2.25;;;;;;;33.90;28.34;100533.97;4996205;28;20374;-69
2021/08/09 10:16:00;;;;;;;4.97;2.00;;;;;;;34.05;27.82;100526.81;4996354;28;20069;-69
2021/08/09 10:18:29;;;;;;;4.97;1.92;;;;;;;34.30;26.54;100523.50;4996272;28;20092;-69
2021/08/09 10:20:56;;;;;;;2.45;1.70;;;;;;;34.56;26.29;100522.84;4996173;28;20511;-69
2021/08/09 10:23:41;;;;;;;3.22;1.92;;;;;;;34.64;25.13;100518.75;4996212;28;20060;-69
2021/08/09 10:26:09;;;;;;;9.30;2.30;;;;;;;34.73;24.37;100517.28;4996119;28;20030;-70
2021/08/09 10:28:53;;;;;;;2.78;1.63;;;;;;;35.02;24.14;100519.94;4996200;28;20469;-70
2021/08/09 10:31:28;;;;;;;3.83;2.13;;;;;;;35.26;22.98;100520.13;4995776;28;20096;-70
2021/08/09 10:33:54;;;;;;;3.63;1.60;;;;;;;35.41;21.65;100518.28;4995620;28;20037;-69
2021/08/09 10:36:21;;;;;;;3.03;1.70;;;;;;;35.64;21.67;100523.91;4995838;28;20484;-69
2021/08/09 10:38:49;;;;;;;2.53;2.00;;;;;;;35.74;21.08;100518.78;4994730;28;20035;-69
2021/08/09 10:41:14;;;;;;;6.78;1.80;;;;;;;35.87;21.71;100514.31;4995715;28;20412;-69
2021/08/09 10:44:02;;;;;;;1.98;1.60;;;;;;;35.55;19.78;100513.81;4995676;28;20105;-69
2021/08/09 10:46:43;;;;;;;2.67;1.60;;;;;;;35.11;19.65;100515.78;4995427;28;20485;-69
2021/08/09 10:49:38;;;;;;;5.47;1.60;;;;;;;35.12;17.88;100512.16;4995456;28;20026;-68
2021/08/09 10:52:04;;;;;;;3.92;1.98;;;;;;;34.64;17.90;100507.13;4916317;29;20059;-69
2021/08/09 10:54:33;;;;;;;4.35;2.35;;;;;;;34.62;18.80;100507.25;4916313;29;20040;-69
2021/08/09 10:57:00;;;;;;;4.25;1.88;;;;;;;34.85;19.52;100504.88;4916297;29;20521;-69
2021/08/09 10:59:40;;;;;;;4.50;1.67;;;;;;;35.11;17.07;100505.06;4916114;29;20048;-69
2021/08/09 11:02:18;;;;;;;5.20;1.90;;;;;;;35.33;18.48;100507.19;4916513;29;20566;-69
2021/08/09 11:04:44;;;;;;;9.07;2.35;;;;;;;35.31;16.69;100492.97;4916093;29;20028;-70
2021/08/09 11:07:18;;;;;;;7.25;2.65;;;;;;;35.52;18.02;100469.22;4916205;29;20047;-69
2021/08/09 11:09:46;;;;;;;5.63;2.00;;;;;;;36.07;17.23;100509.38;4916270;29;20079;-69
2021/08/09 11:12:21;;;;;;;3.72;1.40;;;;;;;36.28;16.17;100509.69;4916019;29;20040;-69
2021/08/09 11:15:06;;;;;;;5.82;2.80;;;;;;;35.97;15.05;100502.94;4915945;29;20044;-69
2021/08/09 11:17:37;;;;;;;2.08;1.50;;;;;;;35.97;15.99;100503.78;4915968;29;20037;-69
2021/08/09 11:20:29;;;;;;;5.43;1.98;;;;;;;36.09;19.69;100510.13;4915472;29;20542;-70
2021/08/09 11:23:08;;;;;;;7.68;2.05;;;;;;;36.21;20.43;100495.81;4915794;29;20039;-70
2021/08/09 11:25:38;;;;;;;5.95;1.98;;;;;;;36.21;21.15;100500.34;4900342;29;20423;-70
2021/08/09 11:28:03;;;;;;;6.97;1.88;;;;;;;36.19;20.82;100480.78;4924319;28;20028;-71